Time;durP1;ratioP1;P1;durP2;ratioP2;P2;SDS_P1;SDS_P2;PMS_P1;PMS_P2;Temp;Humidity;BMP_temperature;BMP_pressure;BME280_temperature;BME280_humidity;BME280_pressure;Samples;Min_cycle;Max_cycle;Signal;HPM_P1;HPM_P2
2023/12/09 00:01:36;;;;;;;64.03;18.88;;;4.80;99.90;;;;;;5018364;28;20037;-69
2023/12/09 00:04:01;;;;;;;61.25;18.10;;;4.80;99.90;;;;;;5019339;28;20022;-70
2023/12/09 00:06:27;;;;;;;59.20;16.92;;;4.90;99.90;;;;;;5019451;28;20082;-69
2023/12/09 00:08:52;;;;;;;55.15;16.88;;;4.90;99.90;;;;;;5018311;28;20018;-69
2023/12/09 00:11:18;;;;;;;61.28;18.65;;;4.90;99.90;;;;;;5019087;28;20022;-69
2023/12/09 00:13:43;;;;;;;54.42;16.95;;;4.80;99.90;;;;;;5018938;28;20026;-69
2023/12/09 00:16:09;;;;;;;72.15;19.13;;;4.80;99.90;;;;;;5018183;28;20092;-69
2023/12/09 00:18:34;;;;;;;56.15;17.77;;;4.70;99.90;;;;;;5017949;28;20034;-69
2023/12/09 00:21:00;;;;;;;56.88;17.00;;;4.60;99.90;;;;;;5018160;28;20080;-69
2023/12/09 00:23:25;;;;;;;59.33;19.90;;;4.70;99.90;;;;;;5019000;28;20045;-69
2023/12/09 00:25:51;;;;;;;55.25;16.67;;;4.60;99.90;;;;;;5017938;28;20101;-69
2023/12/09 00:28:16;;;;;;;58.60;17.98;;;4.60;99.90;;;;;;5019023;28;20080;-69
2023/12/09 00:30:42;;;;;;;59.83;16.85;;;4.60;99.90;;;;;;5017825;28;20029;-69
2023/12/09 00:33:08;;;;;;;50.75;16.63;;;4.60;99.90;;;;;;5018487;28;20021;-69
2023/12/09 00:35:33;;;;;;;60.88;17.88;;;4.60;99.90;;;;;;5018674;28;20030;-69
2023/12/09 00:37:59;;;;;;;55.00;17.08;;;4.50;99.90;;;;;;5017956;28;20034;-69
2023/12/09 00:40:24;;;;;;;50.22;17.02;;;4.50;99.90;;;;;;5017792;28;20022;-69
2023/12/09 00:42:50;;;;;;;49.42;17.50;;;4.50;99.90;;;;;;5017400;28;20125;-69
2023/12/09 00:45:15;;;;;;;50.20;15.93;;;4.50;99.90;;;;;;5018233;28;20018;-69
2023/12/09 00:47:41;;;;;;;50.10;16.08;;;4.50;99.90;;;;;;5017621;28;20021;-70
2023/12/09 00:50:07;;;;;;;54.17;17.13;;;4.50;99.90;;;;;;5018504;28;20022;-69
2023/12/09 00:52:33;;;;;;;54.28;17.45;;;4.40;99.90;;;;;;5018349;28;20041;-69
2023/12/09 00:55:00;;;;;;;55.25;17.65;;;4.40;99.90;;;;;;5018573;28;20026;-69
2023/12/09 00:57:25;;;;;;;50.53;17.05;;;4.30;99.90;;;;;;5018391;28;20061;-69
2023/12/09 00:59:51;;;;;;;56.65;18.50;;;4.40;99.90;;;;;;5017271;28;20030;-69
2023/12/09 01:02:17;;;;;;;61.00;18.63;;;4.50;99.90;;;;;;5018250;28;20026;-69
2023/12/09 01:04:43;;;;;;;53.95;17.23;;;4.50;99.90;;;;;;5017987;28;20032;-69
2023/12/09 01:07:08;;;;;;;49.50;17.77;;;4.60;99.90;;;;;;5018074;28;20022;-69
2023/12/09 01:09:34;;;;;;;59.95;17.88;;;4.60;99.90;;;;;;5018203;28;20096;-69
2023/12/09 01:12:00;;;;;;;49.70;15.88;;;4.60;99.90;;;;;;5018137;28;20086;-69
2023/12/09 01:14:25;;;;;;;59.75;16.58;;;4.60;99.90;;;;;;5017366;28;20030;-71
2023/12/09 01:16:51;;;;;;;54.97;16.85;;;4.50;99.90;;;;;;5017824;28;20072;-69
2023/12/09 01:19:16;;;;;;;56.38;17.60;;;4.50;99.90;;;;;;5018054;28;20026;-69
2023/12/09 01:21:42;;;;;;;59.22;17.75;;;4.50;99.90;;;;;;5017950;28;20037;-71
2023/12/09 01:24:07;;;;;;;52.78;17.35;;;4.50;99.90;;;;;;5018280;28;20025;-71
2023/12/09 01:26:33;;;;;;;58.05;18.20;;;4.50;99.90;;;;;;5017969;28;20018;-69
2023/12/09 01:29:00;;;;;;;46.35;14.80;;;4.50;99.90;;;;;;5017655;28;20093;-69
2023/12/09 01:31:25;;;;;;;45.72;14.55;;;4.50;99.90;;;;;;5016730;28;20034;-69
2023/12/09 01:33:51;;;;;;;53.60;17.00;;;4.50;99.90;;;;;;5017855;28;20087;-69
2023/12/09 01:36:17;;;;;;;45.97;15.55;;;4.50;99.90;;;;;;5017570;28;20022;-69
2023/12/09 01:38:42;;;;;;;44.72;14.48;;;4.50;99.90;;;;;;5017429;28;20029;-69
2023/12/09 01:41:08;;;;;;;59.75;16.80;;;4.50;99.90;;;;;;5016336;28;20033;-69
2023/12/09 01:43:34;;;;;;;50.65;14.65;;;4.60;99.90;;;;;;5016583;28;20022;-69
2023/12/09 01:46:09;;;;;;;56.13;16.60;;;4.70;99.90;;;;;;5017648;28;20100;-71
2023/12/09 01:48:36;;;;;;;56.53;16.98;;;4.50;99.90;;;;;;5017417;28;20022;-69
2023/12/09 01:51:03;;;;;;;56.47;18.27;;;4.40;99.90;;;;;;5016327;28;20018;-69
2023/12/09 01:53:30;;;;;;;64.60;17.70;;;4.30;99.90;;;;;;5016425;28;20022;-69
2023/12/09 01:55:59;;;;;;;67.10;18.13;;;4.20;99.90;;;;;;5016354;28;20026;-70
2023/12/09 01:58:25;;;;;;;63.25;17.25;;;4.30;99.90;;;;;;5017280;28;20029;-69
2023/12/09 02:00:51;;;;;;;51.42;15.68;;;4.30;99.90;;;;;;5017096;28;20022;-69
2023/12/09 02:03:18;;;;;;;52.80;15.13;;;4.40;99.90;;;;;;5017338;28;20069;-69
2023/12/09 02:05:44;;;;;;;55.28;16.58;;;4.40;99.90;;;;;;5016353;28;20060;-69
2023/12/09 02:08:10;;;;;;;54.30;15.82;;;4.50;99.90;;;;;;5016217;28;20022;-69
2023/12/09 02:10:35;;;;;;;47.00;16.15;;;4.60;99.90;;;;;;5016167;28;20045;-69
2023/12/09 02:13:15;;;;;;;54.83;15.95;;;4.70;99.90;;;;;;5017041;28;20061;-69
2023/12/09 02:15:57;;;;;;;41.85;15.65;;;4.70;99.90;;;;;;5017000;28;20025;-69
2023/12/09 02:18:24;;;;;;;;;;;4.70;99.90;;;;;;5017362;28;20026;-69
2023/12/09 02:20:49;;;;;;;49.05;15.27;;;4.70;99.90;;;;;;5016915;28;19906;-69
2023/12/09 02:23:15;;;;;;;56.42;18.00;;;4.70;99.90;;;;;;5015890;28;20033;-69
2023/12/09 02:25:41;;;;;;;54.13;17.85;;;4.70;99.90;;;;;;5016335;28;20022;-71
2023/12/09 02:28:19;;;;;;;61.58;18.73;;;4.60;99.90;;;;;;5015877;28;20018;-69
2023/12/09 02:31:02;;;;;;;59.42;17.23;;;4.50;99.90;;;;;;5016889;28;20014;-69
2023/12/09 02:33:30;;;;;;;54.83;17.67;;;4.30;99.90;;;;;;5016888;28;20022;-70
2023/12/09 02:35:56;;;;;;;52.60;15.75;;;4.20;99.90;;;;;;5016818;28;20033;-69
2023/12/09 02:38:23;;;;;;;55.78;16.40;;;4.30;99.90;;;;;;5016312;28;20026;-69
2023/12/09 02:40:50;;;;;;;47.67;16.05;;;4.40;99.90;;;;;;5016566;28;20037;-69
2023/12/09 02:43:16;;;;;;;50.38;15.93;;;4.60;99.90;;;;;;5016339;28;20041;-69
2023/12/09 02:45:45;;;;;;;60.15;17.08;;;4.70;99.90;;;;;;5016746;28;20092;-71
2023/12/09 02:48:11;;;;;;;47.20;16.13;;;4.80;99.90;;;;;;5016912;28;20024;-69
2023/12/09 02:50:36;;;;;;;51.22;16.33;;;4.80;99.90;;;;;;5015854;28;20109;-69
2023/12/09 02:53:02;;;;;;;42.05;15.60;;;4.80;99.90;;;;;;5015996;28;20049;-69
2023/12/09 02:55:28;;;;;;;45.58;15.55;;;4.80;99.90;;;;;;5015713;28;20045;-69
2023/12/09 02:57:53;;;;;;;48.92;17.45;;;4.80;99.90;;;;;;5015728;28;20049;-69
2023/12/09 03:00:19;;;;;;;49.25;17.33;;;4.80;99.90;;;;;;5016611;28;20030;-69
2023/12/09 03:02:44;;;;;;;48.35;17.00;;;4.70;99.90;;;;;;5016608;28;20021;-69
2023/12/09 03:05:10;;;;;;;54.72;17.17;;;4.70;99.90;;;;;;5020407;28;20022;-69
2023/12/09 03:07:35;;;;;;;52.03;15.43;;;4.60;99.90;;;;;;5020605;28;20022;-70
2023/12/09 03:10:01;;;;;;;51.20;16.30;;;4.60;99.90;;;;;;5020800;28;20026;-71
2023/12/09 03:12:26;;;;;;;44.92;15.38;;;4.50;99.90;;;;;;5020192;28;20063;-69
2023/12/09 03:14:53;;;;;;;50.55;15.15;;;4.60;99.90;;;;;;5020385;28;20036;-70
2023/12/09 03:17:18;;;;;;;44.33;14.60;;;4.60;99.90;;;;;;5020354;28;20062;-70
2023/12/09 03:19:44;;;;;;;45.83;16.60;;;4.60;99.90;;;;;;5020298;28;20022;-71
2023/12/09 03:22:10;;;;;;;44.75;15.25;;;4.50;99.90;;;;;;5020331;28;20152;-70
2023/12/09 03:24:35;;;;;;;49.92;17.13;;;4.60;99.90;;;;;;5019270;28;20021;-69
2023/12/09 03:27:01;;;;;;;44.45;16.30;;;4.60;99.90;;;;;;5019265;28;20018;-70
2023/12/09 03:29:26;;;;;;;51.40;16.55;;;4.60;99.90;;;;;;5019416;28;20018;-69
2023/12/09 03:31:52;;;;;;;44.75;15.07;;;4.70;99.90;;;;;;5019984;28;20034;-69
2023/12/09 03:34:17;;;;;;;38.42;14.00;;;4.70;99.90;;;;;;5019947;28;20072;-70
2023/12/09 03:36:43;;;;;;;42.88;16.08;;;4.70;99.90;;;;;;5019071;28;20041;-69
2023/12/09 03:39:09;;;;;;;50.03;16.10;;;4.60;99.90;;;;;;5019065;28;20041;-71
2023/12/09 03:41:35;;;;;;;44.53;16.08;;;4.60;99.90;;;;;;5019097;28;20073;-70
2023/12/09 03:44:01;;;;;;;42.20;15.38;;;4.50;99.90;;;;;;5020113;28;20073;-69
2023/12/09 03:46:27;;;;;;;46.50;17.10;;;4.50;99.90;;;;;;5019932;28;20022;-70
2023/12/09 03:48:52;;;;;;;54.90;17.30;;;4.50;99.90;;;;;;5018919;28;20033;-71
2023/12/09 03:51:18;;;;;;;49.65;17.17;;;4.50;99.90;;;;;;5018665;28;20072;-69
2023/12/09 03:53:44;;;;;;;57.95;18.42;;;4.40;99.90;;;;;;5019340;28;20053;-72
2023/12/09 03:56:12;;;;;;;57.05;17.27;;;4.50;99.90;;;;;;5018707;28;20099;-70
2023/12/09 03:58:38;;;;;;;47.70;16.70;;;4.50;99.90;;;;;;5019565;28;20081;-71
2023/12/09 04:01:04;;;;;;;54.60;17.13;;;4.60;99.90;;;;;;5018507;28;20022;-71
2023/12/09 04:03:30;;;;;;;52.53;17.25;;;4.60;99.90;;;;;;5019325;28;20030;-70
2023/12/09 04:05:55;;;;;;;53.67;17.13;;;4.60;99.90;;;;;;5018474;28;20029;-70
2023/12/09 04:08:21;;;;;;;51.70;17.55;;;4.60;99.90;;;;;;5019464;28;20029;-72
2023/12/09 04:10:47;;;;;;;49.97;16.17;;;4.60;99.90;;;;;;5019312;28;20026;-70
2023/12/09 04:13:12;;;;;;;51.20;16.92;;;4.60;99.90;;;;;;5019515;28;20030;-69
2023/12/09 04:15:38;;;;;;;53.65;16.52;;;4.70;99.90;;;;;;5018232;28;20030;-69
2023/12/09 04:18:04;;;;;;;48.42;16.77;;;4.60;99.90;;;;;;5019744;28;20026;-70
2023/12/09 04:20:30;;;;;;;61.42;18.10;;;4.60;99.90;;;;;;5019119;28;20022;-70
2023/12/09 04:22:55;;;;;;;53.25;15.98;;;4.60;99.90;;;;;;5018296;28;20045;-69
2023/12/09 04:25:21;;;;;;;43.50;15.68;;;4.40;99.90;;;;;;5019064;28;20029;-71
2023/12/09 04:27:47;;;;;;;53.75;18.10;;;4.40;99.90;;;;;;5019253;28;20044;-70
2023/12/09 04:30:13;;;;;;;52.88;17.17;;;4.40;99.90;;;;;;5018154;28;20053;-71
2023/12/09 04:32:38;;;;;;;50.15;16.38;;;4.40;99.90;;;;;;5019224;28;20033;-70
2023/12/09 04:35:05;;;;;;;49.85;17.30;;;4.40;99.90;;;;;;5018910;28;20026;-70
2023/12/09 04:37:30;;;;;;;49.65;16.42;;;4.50;99.90;;;;;;5017723;28;20061;-71
2023/12/09 04:39:56;;;;;;;43.38;16.17;;;4.50;99.90;;;;;;5019152;28;20037;-69
2023/12/09 04:42:21;;;;;;;58.92;17.77;;;4.50;99.90;;;;;;5017832;28;20034;-71
2023/12/09 04:44:47;;;;;;;49.97;15.82;;;4.50;99.90;;;;;;5017720;28;20104;-70
2023/12/09 04:47:12;;;;;;;45.17;15.43;;;4.50;99.90;;;;;;5018344;28;20089;-71
2023/12/09 04:49:38;;;;;;;49.85;16.50;;;4.60;99.90;;;;;;5018944;28;20113;-70
2023/12/09 04:52:04;;;;;;;43.45;14.55;;;4.80;99.90;;;;;;5018412;28;20026;-71
2023/12/09 04:54:30;;;;;;;43.00;15.65;;;4.80;99.90;;;;;;5018521;28;20048;-70
2023/12/09 04:56:56;;;;;;;53.15;17.40;;;4.80;99.90;;;;;;5018594;28;20034;-71
2023/12/09 04:59:22;;;;;;;57.83;17.83;;;4.70;99.90;;;;;;5017476;28;20026;-69
2023/12/09 05:01:48;;;;;;;56.60;17.27;;;4.80;99.90;;;;;;5017386;28;20030;-70
2023/12/09 05:04:14;;;;;;;63.28;17.48;;;4.70;99.90;;;;;;5018332;28;20025;-69
2023/12/09 05:06:39;;;;;;;49.42;16.85;;;4.60;99.90;;;;;;5018617;28;20014;-71
2023/12/09 05:09:05;;;;;;;59.75;19.00;;;4.70;99.90;;;;;;5018556;28;20022;-71
2023/12/09 05:11:34;;;;;;;67.50;18.70;;;4.70;99.90;;;;;;5017234;28;20034;-69
2023/12/09 05:13:59;;;;;;;56.65;16.23;;;4.60;99.90;;;;;;5018504;28;20022;-69
2023/12/09 05:16:25;;;;;;;58.85;18.83;;;4.60;99.90;;;;;;5017475;28;20036;-71
2023/12/09 05:18:52;;;;;;;61.65;18.23;;;4.60;99.90;;;;;;5018018;28;20026;-70
2023/12/09 05:21:17;;;;;;;58.53;17.80;;;4.70;99.90;;;;;;5017134;28;20022;-70
2023/12/09 05:23:43;;;;;;;62.13;19.25;;;4.70;99.90;;;;;;5017484;28;20112;-70
2023/12/09 05:26:09;;;;;;;59.42;17.33;;;4.80;99.90;;;;;;5016895;28;20116;-70
2023/12/09 05:28:35;;;;;;;59.53;18.02;;;4.80;99.90;;;;;;5017303;28;20022;-70
2023/12/09 05:31:01;;;;;;;62.80;19.45;;;4.70;99.90;;;;;;5017989;28;20022;-71
2023/12/09 05:33:26;;;;;;;73.60;19.58;;;4.60;99.90;;;;;;5017980;28;20022;-70
2023/12/09 05:35:52;;;;;;;66.65;18.90;;;4.60;99.90;;;;;;5017253;28;20030;-70
2023/12/09 05:38:17;;;;;;;59.63;17.05;;;4.60;99.90;;;;;;5016943;28;20037;-70
2023/12/09 05:40:43;;;;;;;51.28;16.00;;;4.60;99.90;;;;;;5017485;28;20042;-70
2023/12/09 05:43:08;;;;;;;55.13;16.58;;;4.80;99.90;;;;;;5041214;22;20096;-63
2023/12/09 05:45:34;;;;;;;54.67;18.50;;;4.80;99.90;;;;;;5016697;28;20022;-63
2023/12/09 05:47:59;;;;;;;51.53;14.93;;;4.80;99.90;;;;;;5033390;28;20029;-63
2023/12/09 05:50:25;;;;;;;48.40;15.95;;;4.80;99.90;;;;;;5033266;28;20026;-64
2023/12/09 05:52:50;;;;;;;47.90;16.00;;;4.80;99.90;;;;;;5032956;28;20067;-68
2023/12/09 05:55:16;;;;;;;48.20;15.57;;;4.90;99.90;;;;;;5033026;28;20028;-68
2023/12/09 05:57:42;;;;;;;45.33;16.13;;;4.90;99.90;;;;;;5033933;28;20052;-68
2023/12/09 06:00:10;;;;;;;47.90;15.00;;;5.00;99.90;;;;;;5033293;28;20029;-68
2023/12/09 06:02:35;;;;;;;44.95;14.73;;;5.00;99.90;;;;;;5016259;28;20117;-68
2023/12/09 06:05:01;;;;;;;39.80;14.60;;;5.10;99.90;;;;;;5032837;28;20062;-68
2023/12/09 06:07:26;;;;;;;41.70;15.05;;;5.20;99.90;;;;;;5033052;28;20022;-68
2023/12/09 06:09:52;;;;;;;38.92;14.48;;;5.20;99.90;;;;;;5033166;28;20038;-68
2023/12/09 06:12:17;;;;;;;45.15;14.57;;;5.20;99.90;;;;;;5016391;28;20033;-67
2023/12/09 06:14:43;;;;;;;39.03;15.10;;;5.10;99.90;;;;;;5017078;28;20026;-67
2023/12/09 06:17:09;;;;;;;45.88;13.70;;;5.10;99.90;;;;;;5032636;28;20022;-68
2023/12/09 06:19:34;;;;;;;48.25;15.93;;;5.20;99.90;;;;;;5017491;28;20033;-68
2023/12/09 06:21:59;;;;;;;44.80;15.95;;;5.10;99.90;;;;;;5032486;28;20048;-68
2023/12/09 06:24:25;;;;;;;36.13;14.40;;;5.10;99.90;;;;;;5032472;28;20022;-67
2023/12/09 06:26:51;;;;;;;43.33;14.43;;;5.10;99.90;;;;;;5032673;28;20022;-67
2023/12/09 06:29:16;;;;;;;45.90;14.77;;;5.20;99.90;;;;;;5032622;28;20018;-67
2023/12/09 06:31:42;;;;;;;46.28;14.23;;;5.10;99.90;;;;;;5032540;28;20037;-68
2023/12/09 06:34:07;;;;;;;40.28;14.60;;;5.10;99.90;;;;;;5016879;28;20033;-68
2023/12/09 06:36:33;;;;;;;42.35;14.43;;;5.10;99.90;;;;;;5032978;28;20034;-68
2023/12/09 06:38:58;;;;;;;39.72;14.85;;;5.20;99.90;;;;;;5019265;28;20018;-68
2023/12/09 06:41:24;;;;;;;39.67;12.93;;;5.20;99.90;;;;;;5036441;28;20049;-67
2023/12/09 06:43:49;;;;;;;41.78;14.75;;;5.20;99.90;;;;;;5020252;28;20018;-68
2023/12/09 06:46:15;;;;;;;33.50;12.32;;;5.30;99.90;;;;;;5036783;28;20026;-68
2023/12/09 06:48:41;;;;;;;33.83;13.40;;;5.30;99.90;;;;;;5036724;28;20030;-68
2023/12/09 06:51:14;;;;;;;38.50;12.48;;;5.30;99.90;;;;;;5036413;28;20049;-68
2023/12/09 06:53:40;;;;;;;45.97;14.50;;;5.20;99.90;;;;;;5036248;28;20093;-68
2023/12/09 06:56:06;;;;;;;39.72;14.48;;;5.20;99.90;;;;;;5036854;28;20022;-68
2023/12/09 06:58:32;;;;;;;42.30;13.02;;;5.20;99.90;;;;;;5036454;28;20022;-68
2023/12/09 07:00:57;;;;;;;40.28;13.10;;;5.30;99.90;;;;;;5036806;28;20037;-68
2023/12/09 07:03:23;;;;;;;41.03;14.13;;;5.30;99.90;;;;;;5036066;28;20026;-68
2023/12/09 07:05:48;;;;;;;38.28;13.00;;;5.30;99.90;;;;;;5036176;28;20022;-68
2023/12/09 07:08:14;;;;;;;45.50;14.60;;;5.30;99.90;;;;;;5036347;28;20029;-68
2023/12/09 07:10:44;;;;;;;37.63;13.05;;;5.30;99.90;;;;;;5036380;28;20110;-68
2023/12/09 07:13:10;;;;;;;45.42;14.20;;;5.40;99.90;;;;;;5036637;28;20136;-67
2023/12/09 07:15:35;;;;;;;40.92;13.15;;;5.30;99.90;;;;;;5036215;28;20054;-67
2023/12/09 07:18:01;;;;;;;38.28;13.18;;;5.40;99.90;;;;;;5036932;28;20034;-68
2023/12/09 07:20:26;;;;;;;33.95;12.75;;;5.40;99.90;;;;;;5036027;28;20084;-68
2023/12/09 07:22:52;;;;;;;38.60;13.10;;;5.40;99.90;;;;;;5036191;28;20121;-68
2023/12/09 07:25:18;;;;;;;36.58;13.40;;;5.50;99.90;;;;;;5036103;28;20018;-68
2023/12/09 07:27:43;;;;;;;34.40;12.63;;;5.50;99.90;;;;;;5036143;28;20121;-68
2023/12/09 07:30:09;;;;;;;30.27;12.02;;;5.50;99.90;;;;;;5035689;28;20033;-68
2023/12/09 07:32:35;;;;;;;42.40;14.23;;;5.60;99.90;;;;;;5035786;28;20056;-68
2023/12/09 07:35:00;;;;;;;41.53;14.50;;;5.60;99.90;;;;;;5035599;28;20113;-68
2023/12/09 07:37:26;;;;;;;46.88;13.50;;;5.60;99.90;;;;;;5036689;28;20041;-68
2023/12/09 07:39:51;;;;;;;35.45;13.20;;;5.70;99.90;;;;;;5035820;28;20135;-68
2023/12/09 07:42:17;;;;;;;40.60;13.63;;;5.80;99.90;;;;;;5035452;28;20037;-68
2023/12/09 07:44:42;;;;;;;37.10;13.65;;;5.70;99.90;;;;;;5035348;28;20119;-67
2023/12/09 07:47:08;;;;;;;43.38;14.45;;;5.80;99.90;;;;;;5035376;28;20022;-68
2023/12/09 07:49:34;;;;;;;49.25;15.10;;;6.00;99.90;;;;;;5035158;28;20028;-68
2023/12/09 07:51:59;;;;;;;43.90;14.98;;;6.00;99.90;;;;;;5035488;28;20117;-68
2023/12/09 07:54:25;;;;;;;47.17;14.60;;;5.80;99.90;;;;;;5035191;28;20068;-68
2023/12/09 07:56:50;;;;;;;50.15;14.85;;;5.80;99.90;;;;;;5036319;28;20030;-68
2023/12/09 07:59:16;;;;;;;55.53;15.90;;;5.90;99.90;;;;;;5035154;28;20032;-68
2023/12/09 08:01:42;;;;;;;47.00;15.48;;;5.80;99.90;;;;;;5035292;28;20030;-68
2023/12/09 08:04:07;;;;;;;50.40;15.32;;;5.80;99.90;;;;;;5035214;28;20018;-68
2023/12/09 08:06:33;;;;;;;43.22;14.90;;;5.90;99.90;;;;;;5035252;28;20029;-68
2023/12/09 08:08:59;;;;;;;48.17;15.65;;;6.00;99.90;;;;;;5019340;28;20026;-68
2023/12/09 08:11:24;;;;;;;54.53;16.08;;;6.00;99.90;;;;;;5019247;28;20037;-67
2023/12/09 08:13:50;;;;;;;40.90;15.10;;;6.00;99.90;;;;;;5034940;28;20026;-68
2023/12/09 08:16:15;;;;;;;51.88;15.25;;;6.10;99.90;;;;;;5035810;28;20030;-68
2023/12/09 08:18:42;;;;;;;43.53;13.57;;;6.10;99.90;;;;;;5035422;28;20068;-68
2023/12/09 08:21:08;;;;;;;46.25;16.23;;;6.20;99.90;;;;;;5019082;28;20028;-68
2023/12/09 08:23:34;;;;;;;39.53;14.13;;;6.20;99.90;;;;;;5035605;28;20034;-68
2023/12/09 08:25:59;;;;;;;40.47;15.48;;;6.30;99.90;;;;;;5019322;28;20042;-68
2023/12/09 08:28:27;;;;;;;45.28;15.43;;;6.40;99.90;;;;;;5035050;28;20085;-67
2023/12/09 08:30:53;;;;;;;46.03;14.25;;;6.30;99.90;;;;;;5034481;28;20026;-68
2023/12/09 08:33:18;;;;;;;38.38;15.05;;;6.30;99.90;;;;;;5034795;28;20029;-68
2023/12/09 08:35:44;;;;;;;45.60;15.35;;;6.20;99.90;;;;;;5034208;28;20030;-67
2023/12/09 08:38:10;;;;;;;42.17;15.20;;;6.20;99.90;;;;;;5034459;28;20030;-68
2023/12/09 08:40:35;;;;;;;46.85;15.85;;;6.20;99.90;;;;;;5018755;28;20103;-68
2023/12/09 08:43:01;;;;;;;40.08;14.32;;;6.30;99.90;;;;;;5018333;28;20034;-68
2023/12/09 08:45:26;;;;;;;47.65;15.35;;;6.40;99.90;;;;;;5018981;28;20032;-68
2023/12/09 08:47:52;;;;;;;46.10;16.15;;;6.40;99.90;;;;;;5018685;28;20053;-68
2023/12/09 08:50:18;;;;;;;46.40;16.58;;;6.40;99.90;;;;;;5034636;28;20025;-68
2023/12/09 08:52:43;;;;;;;46.97;15.00;;;6.40;99.90;;;;;;5017605;28;20037;-69
2023/12/09 08:55:09;;;;;;;45.72;15.25;;;6.30;99.90;;;;;;5034056;28;20026;-70
2023/12/09 08:57:35;;;;;;;52.50;17.23;;;6.20;99.90;;;;;;5033896;28;20117;-69
2023/12/09 09:00:01;;;;;;;39.28;14.48;;;6.20;99.90;;;;;;5033520;28;20030;-69
2023/12/09 09:02:27;;;;;;;39.85;15.48;;;6.30;99.90;;;;;;5017273;28;20026;-70
2023/12/09 09:04:53;;;;;;;50.95;15.32;;;6.40;99.90;;;;;;5033905;28;20025;-70
2023/12/09 09:07:18;;;;;;;59.28;16.25;;;6.20;99.90;;;;;;5033734;28;20026;-70
2023/12/09 09:09:44;;;;;;;61.75;18.40;;;6.10;99.90;;;;;;5034205;28;20060;-69
2023/12/09 09:12:10;;;;;;;48.88;16.25;;;5.90;99.90;;;;;;5018113;28;20022;-70
2023/12/09 09:14:36;;;;;;;49.72;15.57;;;5.90;99.90;;;;;;5033699;28;20033;-70
2023/12/09 09:17:05;;;;;;;49.92;15.52;;;6.10;99.90;;;;;;5033727;28;20033;-70
2023/12/09 09:19:31;;;;;;;46.15;14.88;;;6.20;99.90;;;;;;5018249;28;20036;-70
2023/12/09 09:21:58;;;;;;;49.72;15.02;;;6.30;99.90;;;;;;5033414;28;20026;-69
2023/12/09 09:24:23;;;;;;;48.17;14.55;;;6.30;99.90;;;;;;5017987;28;20014;-70
2023/12/09 09:26:49;;;;;;;45.95;14.80;;;6.30;99.90;;;;;;5018109;28;20021;-70
2023/12/09 09:29:14;;;;;;;53.13;17.33;;;6.20;99.90;;;;;;5018252;28;20022;-70
2023/12/09 09:31:40;;;;;;;39.25;13.70;;;6.10;99.90;;;;;;5017759;28;20036;-70
2023/12/09 09:34:06;;;;;;;45.17;15.57;;;6.30;99.90;;;;;;5018023;28;20033;-71
2023/12/09 09:36:31;;;;;;;39.03;13.73;;;6.30;99.90;;;;;;5033380;28;20025;-70
2023/12/09 09:38:57;;;;;;;47.63;13.95;;;6.30;99.90;;;;;;5017737;28;20045;-70
2023/12/09 09:41:31;;;;;;;39.75;13.82;;;6.30;99.90;;;;;;5017353;28;20042;-70
2023/12/09 09:44:07;;;;;;;39.15;13.20;;;6.30;99.90;;;;;;5033674;28;20040;-71
2023/12/09 09:46:34;;;;;;;34.72;12.40;;;6.40;99.90;;;;;;5017543;28;20056;-70
2023/12/09 09:49:03;;;;;;;36.65;13.20;;;6.50;99.90;;;;;;5033437;28;20112;-71
2023/12/09 09:51:30;;;;;;;50.05;14.98;;;6.40;99.90;;;;;;5017438;28;20057;-70
2023/12/09 09:54:14;;;;;;;54.45;15.55;;;6.40;99.90;;;;;;5017344;28;20025;-70
2023/12/09 09:56:42;;;;;;;38.15;13.38;;;6.40;99.90;;;;;;5017387;28;20089;-69
2023/12/09 09:59:09;;;;;;;44.75;14.85;;;6.50;99.90;;;;;;5032773;28;20022;-70
2023/12/09 10:01:37;;;;;;;47.90;14.20;;;6.60;99.90;;;;;;5017621;28;20028;-70
2023/12/09 10:04:03;;;;;;;33.85;12.75;;;6.70;99.90;;;;;;5017258;28;20025;-70
2023/12/09 10:06:29;;;;;;;48.25;14.75;;;6.80;99.90;;;;;;5017184;28;20030;-69
2023/12/09 10:08:55;;;;;;;42.08;12.85;;;6.70;99.90;;;;;;5033169;28;20033;-69
2023/12/09 10:11:21;;;;;;;42.15;13.80;;;6.80;99.90;;;;;;5016887;28;20029;-70
2023/12/09 10:13:46;;;;;;;31.88;13.48;;;7.00;99.90;;;;;;5032396;28;20040;-70
2023/12/09 10:16:12;;;;;;;37.28;12.40;;;7.10;99.90;;;;;;5032873;28;20030;-69
2023/12/09 10:18:45;;;;;;;35.45;13.20;;;7.20;99.90;;;;;;5032589;28;20018;-70
2023/12/09 10:21:11;;;;;;;37.35;12.70;;;7.00;99.90;;;;;;5017413;28;20025;-70
2023/12/09 10:23:37;;;;;;;33.50;13.02;;;6.80;99.90;;;;;;5032864;28;20022;-70
2023/12/09 10:26:04;;;;;;;35.05;11.88;;;6.80;99.90;;;;;;5017036;28;20073;-69
2023/12/09 10:28:30;;;;;;;32.72;12.93;;;6.90;99.90;;;;;;5017384;28;20026;-70
2023/12/09 10:30:56;;;;;;;40.85;12.25;;;7.10;99.90;;;;;;5032556;28;20081;-70
2023/12/09 10:33:22;;;;;;;29.55;11.02;;;7.10;99.90;;;;;;5016953;28;20057;-70
2023/12/09 10:35:48;;;;;;;37.78;12.75;;;7.00;99.90;;;;;;5017015;28;20029;-70
2023/12/09 10:38:15;;;;;;;24.60;10.82;;;6.90;99.90;;;;;;5016028;28;20026;-70
2023/12/09 10:40:41;;;;;;;28.17;11.77;;;7.10;99.90;;;;;;5032490;28;20033;-70
2023/12/09 10:43:07;;;;;;;36.20;11.70;;;7.10;99.90;;;;;;5032213;28;20030;-70
2023/12/09 10:45:32;;;;;;;32.47;12.68;;;7.10;99.90;;;;;;5032425;28;20018;-70
2023/12/09 10:47:58;;;;;;;41.42;12.15;;;7.00;99.90;;;;;;5032457;28;20045;-69
2023/12/09 10:50:23;;;;;;;31.13;12.85;;;7.10;99.90;;;;;;5033495;28;20025;-69
2023/12/09 10:52:49;;;;;;;37.72;11.88;;;7.00;99.90;;;;;;5016333;28;20132;-69
2023/12/09 10:55:15;;;;;;;29.35;12.27;;;6.80;99.90;;;;;;5033043;28;20089;-69
2023/12/09 10:57:43;;;;;;;34.05;12.68;;;7.00;99.90;;;;;;5016727;28;20022;-69
2023/12/09 11:00:10;;;;;;;34.15;12.70;;;7.00;99.90;;;;;;5032200;28;20026;-69
2023/12/09 11:02:44;;;;;;;48.55;14.70;;;7.00;99.90;;;;;;5032117;28;20030;-69
2023/12/09 11:05:10;;;;;;;43.78;14.25;;;6.90;99.90;;;;;;5016688;28;20113;-68
2023/12/09 11:07:37;;;;;;;49.03;15.10;;;7.00;99.90;;;;;;5016670;28;20049;-67
2023/12/09 11:10:04;;;;;;;43.35;16.13;;;6.80;99.90;;;;;;5016568;28;20022;-68
2023/12/09 11:12:34;;;;;;;45.20;16.65;;;6.90;99.90;;;;;;5032416;28;20053;-68
2023/12/09 11:15:30;;;;;;;59.00;18.70;;;7.00;99.90;;;;;;5016499;28;20030;-68
2023/12/09 11:18:17;;;;;;;51.72;17.58;;;6.90;99.90;;;;;;5015754;28;20022;-68
2023/12/09 11:20:45;;;;;;;58.40;18.35;;;6.80;99.90;;;;;;5016685;28;20083;-68
2023/12/09 11:23:11;;;;;;;56.80;19.25;;;6.60;99.90;;;;;;5015598;28;20034;-69
2023/12/09 11:25:42;;;;;;;58.92;16.95;;;6.60;99.90;;;;;;5020791;28;20022;-69
2023/12/09 11:28:10;;;;;;;57.90;18.88;;;6.60;99.90;;;;;;5019185;28;20175;-68
2023/12/09 11:30:40;;;;;;;66.93;20.23;;;6.60;99.90;;;;;;5019670;28;20018;-69
2023/12/09 11:33:06;;;;;;;61.28;18.80;;;6.50;99.90;;;;;;5035703;28;20021;-69
2023/12/09 11:35:36;;;;;;;54.72;19.25;;;6.60;99.90;;;;;;5035565;28;20040;-69
2023/12/09 11:38:05;;;;;;;49.45;16.25;;;6.50;99.90;;;;;;5035956;28;20056;-68
2023/12/09 11:40:32;;;;;;;50.35;17.20;;;6.60;99.90;;;;;;5018973;28;20061;-69
2023/12/09 11:42:58;;;;;;;62.95;18.55;;;6.60;99.90;;;;;;5058533;22;20049;-69
2023/12/09 11:45:25;;;;;;;48.78;17.00;;;6.50;99.90;;;;;;5019702;28;20029;-69
2023/12/09 11:47:50;;;;;;;58.05;19.00;;;6.50;99.90;;;;;;5036049;28;20055;-69
2023/12/09 11:50:17;;;;;;;43.70;15.20;;;6.60;99.90;;;;;;5020053;28;20082;-69
2023/12/09 11:52:43;;;;;;;48.45;16.52;;;6.70;99.90;;;;;;5019462;28;20030;-69
2023/12/09 11:55:11;;;;;;;37.22;12.73;;;6.80;99.90;;;;;;5019522;28;20022;-69
2023/12/09 11:57:40;;;;;;;46.45;15.38;;;7.00;99.90;;;;;;5019449;28;20083;-69
2023/12/09 12:00:06;;;;;;;39.85;14.00;;;7.10;99.90;;;;;;5019686;28;20034;-70
2023/12/09 12:02:33;;;;;;;37.60;12.98;;;7.40;99.90;;;;;;5019142;28;20022;-70
2023/12/09 12:04:59;;;;;;;31.77;13.30;;;7.50;99.90;;;;;;5018710;28;20018;-70
2023/12/09 12:07:24;;;;;;;31.02;12.18;;;7.60;99.90;;;;;;5018802;28;20032;-69
2023/12/09 12:09:50;;;;;;;36.08;12.77;;;7.60;99.90;;;;;;5019515;28;20029;-70
2023/12/09 12:12:17;;;;;;;32.08;11.93;;;7.70;99.90;;;;;;5019227;28;20048;-69
2023/12/09 12:14:43;;;;;;;26.98;12.88;;;7.60;99.90;;;;;;5019304;28;20045;-69
2023/12/09 12:17:09;;;;;;;31.63;12.88;;;7.50;99.90;;;;;;5019121;28;20052;-69
2023/12/09 12:19:35;;;;;;;25.98;11.57;;;7.50;99.90;;;;;;5018058;28;20022;-69
2023/12/09 12:22:01;;;;;;;38.08;14.05;;;7.40;99.90;;;;;;5019065;28;20029;-68
2023/12/09 12:24:27;;;;;;;31.20;11.98;;;7.30;99.90;;;;;;5018101;28;20029;-68
2023/12/09 12:26:57;;;;;;;35.03;11.85;;;7.20;99.90;;;;;;5017974;28;20075;-68
2023/12/09 12:29:23;;;;;;;33.35;13.43;;;7.40;99.90;;;;;;5018922;28;20026;-68
2023/12/09 12:31:51;;;;;;;28.70;11.50;;;7.30;99.90;;;;;;5018883;28;20056;-68
2023/12/09 12:34:18;;;;;;;27.33;11.20;;;7.40;99.90;;;;;;5017925;28;20026;-68